Time;durP1;ratioP1;P1;durP2;ratioP2;P2;SDS_P1;SDS_P2;PMS_P1;PMS_P2;Temp;Humidity;BMP_temperature;BMP_pressure;BME280_temperature;BME280_humidity;BME280_pressure;Samples;Min_cycle;Max_cycle;Signal;HPM_P1;HPM_P2
2022/06/17 00:00:57;;;;;;;13.60;10.73;;;21.90;66.50;;;;;;5075174;28;20040;-10
2022/06/17 00:03:26;;;;;;;12.07;9.07;;;21.80;66.40;;;;;;5075202;28;20012;-11
2022/06/17 00:05:55;;;;;;;13.15;10.02;;;21.80;66.40;;;;;;5075147;28;20110;-11
2022/06/17 00:08:33;;;;;;;12.18;9.38;;;21.80;66.50;;;;;;5075065;28;20035;-11
2022/06/17 00:10:59;;;;;;;11.75;9.60;;;21.70;66.70;;;;;;5075393;28;20480;-11
2022/06/17 00:13:26;;;;;;;10.95;8.77;;;21.70;66.60;;;;;;5075173;28;20107;-11
2022/06/17 00:15:53;;;;;;;10.68;8.25;;;21.70;66.70;;;;;;5075165;28;20174;-11
2022/06/17 00:18:22;;;;;;;14.27;10.05;;;21.70;66.80;;;;;;5074761;28;20012;-11
2022/06/17 00:20:50;;;;;;;11.48;9.80;;;21.80;67.00;;;;;;5074761;28;20127;-11
2022/06/17 00:23:19;;;;;;;12.75;9.73;;;21.70;67.10;;;;;;5074747;28;20024;-11
2022/06/17 00:25:47;;;;;;;12.60;9.77;;;21.70;67.30;;;;;;5074662;28;20111;-11
2022/06/17 00:28:16;;;;;;;12.75;9.95;;;21.70;67.60;;;;;;5074488;28;20029;-12
2022/06/17 00:30:43;;;;;;;14.00;10.45;;;21.50;67.70;;;;;;5074549;28;20032;-11
2022/06/17 00:33:09;;;;;;;13.27;10.38;;;21.50;67.80;;;;;;5074834;28;20484;-11
2022/06/17 00:35:56;;;;;;;15.32;9.93;;;21.40;68.00;;;;;;5074481;28;20021;-11
2022/06/17 00:38:26;;;;;;;13.20;10.27;;;21.40;68.20;;;;;;5074389;28;20024;-11
2022/06/17 00:40:53;;;;;;;13.27;10.57;;;21.40;68.30;;;;;;5074550;28;20024;-11
2022/06/17 00:43:22;;;;;;;14.32;12.18;;;21.40;68.50;;;;;;5075238;28;20025;-11
2022/06/17 00:45:55;;;;;;;18.42;14.95;;;21.30;68.80;;;;;;5074190;28;20033;-10
2022/06/17 00:48:25;;;;;;;17.40;13.57;;;21.20;69.10;;;;;;5073984;28;20032;-11
2022/06/17 00:51:20;;;;;;;14.32;11.25;;;21.10;69.50;;;;;;5072790;28;20098;-11
2022/06/17 00:53:58;;;;;;;18.92;13.77;;;21.10;69.90;;;;;;5074108;28;20070;-12
2022/06/17 00:56:32;;;;;;;15.32;11.82;;;21.00;69.80;;;;;;5074183;28;20499;-11
2022/06/17 00:59:04;;;;;;;14.02;11.13;;;20.90;70.10;;;;;;5074272;28;20119;-10
2022/06/17 01:01:50;;;;;;;17.42;13.80;;;20.90;70.30;;;;;;5073931;28;20033;-11
2022/06/17 01:04:22;;;;;;;17.02;12.10;;;21.00;70.70;;;;;;5074084;28;20028;-11
2022/06/17 01:06:54;;;;;;;15.35;11.00;;;21.00;70.70;;;;;;5073796;28;20111;-11
2022/06/17 01:12:16;;;;;;;16.20;12.23;;;21.00;70.70;;;;;;5074090;28;20032;-11
2022/06/17 01:14:44;;;;;;;14.18;10.43;;;20.90;70.70;;;;;;5073957;28;20063;-11
2022/06/17 01:17:16;;;;;;;12.02;10.13;;;20.90;70.90;;;;;;5073647;28;20032;-11
2022/06/17 01:19:52;;;;;;;14.73;12.30;;;20.90;71.00;;;;;;5073672;28;20039;-11
2022/06/17 01:22:21;;;;;;;14.57;11.20;;;20.90;71.40;;;;;;5073662;28;20259;-10
2022/06/17 01:24:48;;;;;;;15.00;12.35;;;20.80;71.40;;;;;;5073491;28;20025;-11
2022/06/17 01:27:19;;;;;;;15.18;12.63;;;20.80;71.50;;;;;;5072186;28;20056;-10
2022/06/17 01:29:45;;;;;;;13.93;12.15;;;20.70;71.80;;;;;;5073656;28;20485;-10
2022/06/17 01:32:13;;;;;;;15.48;11.45;;;20.70;72.00;;;;;;5073425;28;20028;-10
2022/06/17 01:34:40;;;;;;;15.65;12.82;;;20.60;71.90;;;;;;5073386;28;20067;-11
2022/06/17 01:37:07;;;;;;;18.90;15.38;;;20.60;72.00;;;;;;5073240;28;20500;-10
2022/06/17 01:39:34;;;;;;;15.23;12.27;;;20.60;72.60;;;;;;5073534;28;20040;-10
2022/06/17 01:42:00;;;;;;;14.00;11.88;;;20.60;72.60;;;;;;5073648;28;20025;-10
2022/06/17 01:44:33;;;;;;;15.95;13.55;;;20.60;72.50;;;;;;5071720;28;20032;-10
2022/06/17 01:47:01;;;;;;;;;;;20.50;72.60;;;;;;5073604;28;20033;-10
2022/06/17 01:49:49;;;;;;;13.65;11.52;;;20.50;74.00;;;;;;5073504;28;19908;-10
2022/06/17 01:52:33;;;;;;;14.88;12.73;;;20.50;73.30;;;;;;5071838;28;20036;-10
2022/06/17 01:55:01;;;;;;;;;;;20.40;72.80;;;;;;5073970;28;20025;-11
2022/06/17 01:57:43;;;;;;;14.27;12.45;;;20.40;73.60;;;;;;5073634;28;19908;-10
2022/06/17 02:00:22;;;;;;;17.73;14.05;;;20.30;73.10;;;;;;5073224;28;20408;-11
2022/06/17 02:02:57;;;;;;;20.23;17.20;;;20.30;73.20;;;;;;5073148;28;20035;-10
2022/06/17 02:05:25;;;;;;;17.58;14.10;;;20.30;73.30;;;;;;5073428;28;20032;-11
2022/06/17 02:07:59;;;;;;;18.33;15.80;;;20.30;73.60;;;;;;5072954;28;20079;-10
2022/06/17 02:10:29;;;;;;;15.82;13.35;;;20.30;73.80;;;;;;5071241;28;20016;-10
2022/06/17 02:12:58;;;;;;;16.38;13.85;;;20.30;73.90;;;;;;5073010;28;20029;-11
2022/06/17 02:15:24;;;;;;;15.20;13.60;;;20.20;74.00;;;;;;5072842;28;20074;-11
2022/06/17 02:17:52;;;;;;;18.02;14.38;;;20.20;74.10;;;;;;5072940;28;20029;-10
2022/06/17 02:20:21;;;;;;;17.60;14.23;;;20.20;74.10;;;;;;5073329;28;20103;-11
2022/06/17 02:22:47;;;;;;;14.88;11.85;;;20.20;74.20;;;;;;5072907;28;20029;-10
2022/06/17 02:25:18;;;;;;;19.60;16.75;;;20.20;74.10;;;;;;5073238;28;20100;-11
2022/06/17 02:27:47;;;;;;;17.55;14.85;;;20.30;74.40;;;;;;5072838;28;20024;-10
2022/06/17 02:30:14;;;;;;;21.58;18.55;;;20.20;74.60;;;;;;5072935;28;20126;-11
2022/06/17 02:32:43;;;;;;;25.08;20.95;;;20.20;74.80;;;;;;5072730;28;20489;-11
2022/06/17 02:35:17;;;;;;;23.38;20.02;;;20.10;75.10;;;;;;5073063;28;20032;-11
2022/06/17 02:37:44;;;;;;;26.35;22.40;;;20.00;75.30;;;;;;5072790;28;20028;-10
2022/06/17 02:40:24;;;;;;;25.38;21.45;;;20.00;75.50;;;;;;5073076;28;20051;-11
2022/06/17 02:42:50;;;;;;;28.42;23.80;;;19.90;76.00;;;;;;5072736;28;20021;-11
2022/06/17 02:45:22;;;;;;;22.00;17.33;;;19.90;76.10;;;;;;5072902;28;20035;-11
2022/06/17 02:47:49;;;;;;;24.38;19.30;;;19.90;76.10;;;;;;5071367;28;20033;-10
2022/06/17 02:50:25;;;;;;;21.42;18.27;;;19.90;76.40;;;;;;5072438;28;20118;-11
2022/06/17 02:52:54;;;;;;;32.38;26.52;;;19.90;76.40;;;;;;5073104;28;20029;-10
2022/06/17 02:55:38;;;;;;;21.10;17.27;;;19.90;76.40;;;;;;5072556;28;20020;-10
2022/06/17 02:58:35;;;;;;;20.25;16.75;;;19.90;76.40;;;;;;5072616;28;20025;-10
2022/06/17 03:01:04;;;;;;;22.00;17.92;;;19.90;76.40;;;;;;5072580;28;20044;-10
2022/06/17 03:03:31;;;;;;;27.58;21.98;;;19.90;76.20;;;;;;5072490;28;20039;-10
2022/06/17 03:05:57;;;;;;;21.88;17.48;;;19.90;76.50;;;;;;5072700;28;20415;-10
2022/06/17 03:08:27;;;;;;;21.27;18.23;;;19.90;76.50;;;;;;5070918;28;20033;-10
2022/06/17 03:10:55;;;;;;;30.92;26.20;;;19.90;76.50;;;;;;5072706;28;20028;-10
2022/06/17 03:13:56;;;;;;;23.33;18.42;;;19.90;76.60;;;;;;5072632;28;20032;-10
2022/06/17 03:16:23;;;;;;;27.88;23.02;;;19.90;76.90;;;;;;5070154;28;20040;-11
2022/06/17 03:18:51;;;;;;;26.33;20.73;;;19.80;77.00;;;;;;5070397;28;20045;-11
2022/06/17 03:21:23;;;;;;;24.65;20.25;;;19.90;77.30;;;;;;5070278;28;20025;-11
2022/06/17 03:24:01;;;;;;;24.90;20.13;;;19.80;77.00;;;;;;5073093;28;20044;-10
2022/06/17 03:26:30;;;;;;;24.40;18.83;;;19.80;77.20;;;;;;5073587;28;20056;-11
2022/06/17 03:28:58;;;;;;;20.65;17.83;;;19.80;77.20;;;;;;5073643;28;20622;-10
2022/06/17 03:31:49;;;;;;;25.05;19.73;;;19.80;77.20;;;;;;5073739;28;20082;-12
2022/06/17 03:34:25;;;;;;;19.73;17.15;;;19.80;77.60;;;;;;5073643;28;20028;-11
2022/06/17 03:37:08;;;;;;;21.48;17.92;;;19.80;77.20;;;;;;5073543;28;20045;-11
2022/06/17 03:39:40;;;;;;;20.48;17.45;;;19.80;77.10;;;;;;5073543;28;20538;-10
2022/06/17 03:42:41;;;;;;;21.00;17.27;;;19.80;77.20;;;;;;5073492;28;20031;-11
2022/06/17 03:45:15;;;;;;;20.80;17.67;;;19.80;77.10;;;;;;5073450;28;20100;-11
2022/06/17 03:47:48;;;;;;;20.13;16.00;;;19.70;77.00;;;;;;5073658;28;20036;-11
2022/06/17 03:50:35;;;;;;;24.00;19.75;;;19.70;77.10;;;;;;5074174;28;20083;-10
2022/06/17 03:53:11;;;;;;;36.38;29.25;;;19.70;77.70;;;;;;5075394;28;20021;-10
2022/06/17 03:55:37;;;;;;;25.02;21.30;;;19.80;77.70;;;;;;5076179;28;20036;-10
2022/06/17 03:58:04;;;;;;;23.13;19.30;;;19.80;77.50;;;;;;5075578;28;20028;-10
2022/06/17 04:00:51;;;;;;;25.48;20.50;;;19.80;77.60;;;;;;5075758;28;20030;-11
2022/06/17 04:03:23;;;;;;;22.50;19.77;;;19.80;77.90;;;;;;5075232;28;20028;-12
2022/06/17 04:06:10;;;;;;;23.98;20.42;;;19.90;77.60;;;;;;5075416;28;20028;-11
2022/06/17 04:08:56;;;;;;;22.92;18.95;;;19.90;77.70;;;;;;5074873;28;20037;-10
2022/06/17 04:11:28;;;;;;;30.50;25.58;;;20.00;77.90;;;;;;5075002;28;20029;-11
2022/06/17 04:13:58;;;;;;;26.77;21.17;;;20.10;77.70;;;;;;5075455;28;20032;-11
2022/06/17 04:16:46;;;;;;;20.55;18.27;;;20.00;77.70;;;;;;5075630;28;20056;-10
2022/06/17 04:19:15;;;;;;;22.60;18.05;;;20.10;77.60;;;;;;5074915;28;20051;-10
2022/06/17 04:21:42;;;;;;;23.42;19.98;;;20.10;77.50;;;;;;5075329;28;20511;-10
2022/06/17 04:24:21;;;;;;;21.80;19.33;;;20.20;77.90;;;;;;5074909;28;20041;-11
2022/06/17 04:26:52;;;;;;;24.75;19.38;;;20.30;77.60;;;;;;5074961;28;20035;-11
2022/06/17 04:29:44;;;;;;;20.65;18.40;;;20.40;77.70;;;;;;5074921;28;20033;-10
2022/06/17 04:32:27;;;;;;;23.42;20.30;;;20.40;77.70;;;;;;5074796;28;20028;-10
2022/06/17 04:34:53;;;;;;;;;;;20.50;77.50;;;;;;5074728;28;20032;-11
2022/06/17 04:37:21;;;;;;;27.92;21.83;;;20.60;80.30;;;;;;5074804;28;19911;-10
2022/06/17 04:39:47;;;;;;;26.35;21.27;;;20.70;77.70;;;;;;5074731;28;20033;-11
2022/06/17 04:42:24;;;;;;;22.55;19.85;;;20.80;77.60;;;;;;5074319;28;20032;-11
2022/06/17 04:44:53;;;;;;;21.13;18.67;;;20.90;77.20;;;;;;5074277;28;20025;-11
2022/06/17 04:47:20;;;;;;;34.03;26.48;;;21.00;76.90;;;;;;5074538;28;20103;-11
2022/06/17 04:49:59;;;;;;;24.67;20.17;;;21.10;77.80;;;;;;5072827;28;20031;-11
2022/06/17 04:52:32;;;;;;;24.73;21.23;;;21.20;77.30;;;;;;5074331;28;20029;-11
2022/06/17 04:55:00;;;;;;;25.65;22.77;;;21.40;76.80;;;;;;5074163;28;20068;-11
2022/06/17 04:57:29;;;;;;;30.90;25.73;;;21.50;76.50;;;;;;5074073;28;20027;-10
2022/06/17 04:59:58;;;;;;;27.45;22.42;;;21.60;76.30;;;;;;5073927;28;20503;-11
2022/06/17 05:02:30;;;;;;;33.20;28.23;;;21.70;76.10;;;;;;5073755;28;20038;-10
2022/06/17 05:05:03;;;;;;;22.38;19.48;;;21.80;76.00;;;;;;5074181;28;20029;-10
2022/06/17 05:07:39;;;;;;;32.28;23.40;;;21.90;75.90;;;;;;5074605;28;20086;-10
2022/06/17 05:10:15;;;;;;;30.77;26.50;;;21.90;75.70;;;;;;5074053;28;20491;-11
2022/06/17 05:12:49;;;;;;;27.02;23.25;;;22.10;75.30;;;;;;5073834;28;20373;-11
2022/06/17 05:15:21;;;;;;;26.38;22.63;;;22.20;75.10;;;;;;5074190;28;20035;-10
2022/06/17 05:17:48;;;;;;;30.13;24.10;;;22.40;74.80;;;;;;5072484;28;20051;-10
2022/06/17 05:20:18;;;;;;;24.00;20.27;;;22.40;74.60;;;;;;5073784;28;20029;-13
2022/06/17 05:22:53;;;;;;;21.70;17.83;;;22.60;74.40;;;;;;5073949;28;20067;-10
2022/06/17 05:25:22;;;;;;;31.40;25.60;;;22.70;74.20;;;;;;5073557;28;20032;-10
2022/06/17 05:27:49;;;;;;;28.23;24.45;;;22.90;73.90;;;;;;5073695;28;20040;-10
2022/06/17 05:30:15;;;;;;;31.23;23.25;;;23.00;73.70;;;;;;5073443;28;20036;-10
2022/06/17 05:32:46;;;;;;;29.55;24.83;;;23.10;73.30;;;;;;5073426;28;20035;-10
2022/06/17 05:35:13;;;;;;;25.92;22.27;;;23.20;73.30;;;;;;5073457;28;20415;-11
2022/06/17 05:37:39;;;;;;;29.95;25.13;;;23.40;73.10;;;;;;5073333;28;20085;-11
2022/06/17 05:40:08;;;;;;;24.08;20.08;;;23.40;73.00;;;;;;5073408;28;20484;-10
2022/06/17 05:42:39;;;;;;;29.00;24.80;;;23.60;72.70;;;;;;5073119;28;20032;-10
2022/06/17 05:45:07;;;;;;;27.98;24.35;;;23.70;72.90;;;;;;5072649;28;20465;-9
2022/06/17 05:47:32;;;;;;;26.65;22.17;;;23.80;72.30;;;;;;5073495;28;20051;-10
2022/06/17 05:49:58;;;;;;;30.52;25.65;;;23.90;72.00;;;;;;5071788;28;20484;-11
2022/06/17 05:52:24;;;;;;;31.45;24.25;;;24.00;71.90;;;;;;5073071;28;20024;-11
2022/06/17 05:54:58;;;;;;;19.65;17.05;;;24.10;71.50;;;;;;5073163;28;20035;-10
2022/06/17 05:57:25;;;;;;;19.58;17.25;;;24.20;71.20;;;;;;5073935;28;20134;-10
2022/06/17 05:59:50;;;;;;;22.30;19.23;;;24.30;70.90;;;;;;5073312;28;20609;-10
2022/06/17 06:02:16;;;;;;;21.02;17.58;;;24.40;70.50;;;;;;5071665;28;20025;-10
2022/06/17 06:04:42;;;;;;;21.83;18.27;;;24.50;70.20;;;;;;5073103;28;20388;-9
2022/06/17 06:07:09;;;;;;;20.15;16.92;;;24.60;69.80;;;;;;5072937;28;20071;-9
2022/06/17 06:09:35;;;;;;;20.95;18.70;;;24.80;69.50;;;;;;5073123;28;20021;-10
2022/06/17 06:12:01;;;;;;;17.10;15.32;;;24.90;69.50;;;;;;5073233;28;20176;-10
2022/06/17 06:14:27;;;;;;;22.35;19.98;;;25.10;69.00;;;;;;5072634;28;20481;-9
2022/06/17 06:16:53;;;;;;;21.45;17.17;;;25.20;68.80;;;;;;5072934;28;20017;-9
2022/06/17 06:19:18;;;;;;;20.65;18.15;;;25.40;68.40;;;;;;5072926;28;20437;-10
2022/06/17 06:21:44;;;;;;;17.60;14.20;;;25.40;68.10;;;;;;5072850;28;20508;-9
2022/06/17 06:24:10;;;;;;;18.55;14.90;;;25.60;68.00;;;;;;5073045;28;20020;-10
2022/06/17 06:26:36;;;;;;;19.70;17.50;;;25.70;67.60;;;;;;5072635;28;20029;-9
2022/06/17 06:29:06;;;;;;;17.95;14.75;;;25.80;67.30;;;;;;5073045;28;20044;-10
2022/06/17 06:31:34;;;;;;;16.60;13.80;;;25.90;67.00;;;;;;5072821;28;20534;-10
2022/06/17 06:34:00;;;;;;;21.10;15.38;;;25.90;66.80;;;;;;5072793;28;20110;-9
2022/06/17 06:36:27;;;;;;;19.25;13.82;;;25.90;66.40;;;;;;5072900;28;20029;-9
2022/06/17 06:38:53;;;;;;;19.05;13.13;;;26.00;66.30;;;;;;5072706;28;20024;-10
2022/06/17 06:41:20;;;;;;;20.38;14.95;;;26.10;65.90;;;;;;5072710;28;20034;-10
2022/06/17 06:43:47;;;;;;;18.20;14.18;;;26.10;65.70;;;;;;5072626;28;20024;-10
2022/06/17 06:46:16;;;;;;;20.42;14.68;;;26.20;65.20;;;;;;5072970;28;20029;-10
2022/06/17 06:48:43;;;;;;;16.77;12.32;;;26.40;64.20;;;;;;5072887;28;20539;-10
2022/06/17 06:51:09;;;;;;;15.70;13.23;;;26.50;64.00;;;;;;5072354;28;20074;-9
2022/06/17 06:53:36;;;;;;;16.90;12.05;;;26.70;63.40;;;;;;5072886;28;20094;-9
2022/06/17 06:56:05;;;;;;;19.10;12.98;;;26.90;63.40;;;;;;5072723;28;20028;-10
2022/06/17 06:58:31;;;;;;;15.55;12.52;;;27.10;62.90;;;;;;5076459;28;20027;-11
2022/06/17 07:00:58;;;;;;;20.08;11.48;;;27.20;62.00;;;;;;5091925;28;20028;-10
2022/06/17 07:03:27;;;;;;;14.18;11.30;;;27.30;61.70;;;;;;5076520;28;20035;-10
2022/06/17 07:05:57;;;;;;;10.52;8.35;;;27.40;61.10;;;;;;5076508;28;20123;-9
2022/06/17 07:08:25;;;;;;;16.80;10.48;;;27.60;59.30;;;;;;5075838;28;20074;-9
2022/06/17 07:10:53;;;;;;;11.70;9.68;;;27.80;58.30;;;;;;5076131;28;20056;-10
2022/06/17 07:13:22;;;;;;;15.27;9.07;;;28.00;58.10;;;;;;5076382;28;20078;-10
2022/06/17 07:15:56;;;;;;;9.77;8.45;;;28.30;57.90;;;;;;5076218;28;20196;-10
2022/06/17 07:18:29;;;;;;;16.08;9.45;;;28.40;56.90;;;;;;5075826;28;20498;-9
2022/06/17 07:20:59;;;;;;;13.68;10.43;;;28.60;56.70;;;;;;5076024;28;20056;-10
2022/06/17 07:23:33;;;;;;;16.05;9.65;;;28.80;56.10;;;;;;5076142;28;20484;-11
2022/06/17 07:26:00;;;;;;;13.30;9.68;;;28.90;55.90;;;;;;5075881;28;20028;-9
2022/06/17 07:28:27;;;;;;;12.30;8.25;;;29.10;55.50;;;;;;5075850;28;20115;-10
2022/06/17 07:30:55;;;;;;;9.85;8.65;;;29.20;55.50;;;;;;5076026;28;20048;-9
2022/06/17 07:33:23;;;;;;;12.80;9.10;;;29.40;54.80;;;;;;5075680;28;20395;-10
2022/06/17 07:35:53;;;;;;;12.95;9.50;;;29.50;54.40;;;;;;5075692;28;20117;-10
2022/06/17 07:41:08;;;;;;;11.68;9.20;;;29.90;54.00;;;;;;5075952;28;20036;-10
2022/06/17 07:43:34;;;;;;;11.95;9.13;;;30.10;53.40;;;;;;5075559;28;20077;-10
2022/06/17 07:46:02;;;;;;;12.35;10.00;;;30.30;53.10;;;;;;5075450;28;20032;-9
2022/06/17 07:48:29;;;;;;;13.15;9.07;;;30.50;52.10;;;;;;5075153;28;20032;-9
2022/06/17 07:50:58;;;;;;;15.52;9.60;;;30.70;51.10;;;;;;5075536;28;20044;-10
2022/06/17 07:53:27;;;;;;;12.23;9.25;;;30.90;50.40;;;;;;5075677;28;20036;-11
2022/06/17 07:55:55;;;;;;;9.35;7.65;;;31.00;50.30;;;;;;5075663;28;20013;-10
2022/06/17 07:58:20;;;;;;;13.15;10.23;;;31.10;50.60;;;;;;5075182;28;20032;-10
2022/06/17 08:00:47;;;;;;;11.35;9.02;;;31.20;50.80;;;;;;5075503;28;20025;-10
2022/06/17 08:03:16;;;;;;;12.85;9.00;;;31.20;51.00;;;;;;5075416;28;20112;-10
2022/06/17 08:05:45;;;;;;;13.95;9.93;;;31.30;50.90;;;;;;5075132;28;20079;-10
2022/06/17 08:08:21;;;;;;;11.23;9.63;;;31.40;50.80;;;;;;5075167;28;20040;-10
2022/06/17 08:10:58;;;;;;;11.10;8.73;;;31.50;50.60;;;;;;5075093;28;20028;-11
2022/06/17 08:13:24;;;;;;;10.15;8.40;;;31.70;50.50;;;;;;5075913;28;20112;-10
2022/06/17 08:15:54;;;;;;;9.82;8.20;;;31.70;50.10;;;;;;5074924;28;20020;-10
2022/06/17 08:18:20;;;;;;;9.88;7.93;;;31.60;49.60;;;;;;5074734;28;20468;-10
2022/06/17 08:20:46;;;;;;;11.43;7.45;;;31.60;49.50;;;;;;5074841;28;20035;-10
2022/06/17 08:23:14;;;;;;;10.05;7.72;;;31.70;48.50;;;;;;5075076;28;20119;-10
2022/06/17 08:25:42;;;;;;;10.00;7.07;;;31.80;48.00;;;;;;5074758;28;20085;-10
2022/06/17 08:28:10;;;;;;;17.52;10.18;;;32.00;47.90;;;;;;5074639;28;20085;-11
2022/06/17 08:30:42;;;;;;;11.90;8.65;;;32.30;48.00;;;;;;5074437;28;20059;-10
2022/06/17 08:33:08;;;;;;;16.73;9.77;;;32.60;47.40;;;;;;5074997;28;20016;-10
2022/06/17 08:35:41;;;;;;;12.52;8.90;;;32.90;46.80;;;;;;5074860;28;20043;-10
2022/06/17 08:38:10;;;;;;;12.43;9.90;;;33.20;47.00;;;;;;5075113;28;20050;-9
2022/06/17 08:40:54;;;;;;;12.15;8.98;;;33.40;46.00;;;;;;5073111;28;20582;-10
2022/06/17 08:43:44;;;;;;;11.80;9.07;;;33.60;45.30;;;;;;5074780;28;20069;-10
2022/06/17 08:46:27;;;;;;;15.80;10.88;;;33.70;45.10;;;;;;5074388;28;20119;-10
2022/06/17 08:48:53;;;;;;;13.30;11.40;;;33.70;45.50;;;;;;5074321;28;20526;-10
2022/06/17 08:51:29;;;;;;;11.90;10.15;;;33.50;45.50;;;;;;5072776;28;20083;-10
2022/06/17 08:54:04;;;;;;;13.57;11.07;;;33.60;45.60;;;;;;5074184;28;20366;-10
2022/06/17 08:56:52;;;;;;;10.75;9.57;;;33.90;44.60;;;;;;5073940;28;20037;-10
2022/06/17 08:59:35;;;;;;;14.52;9.70;;;34.10;45.30;;;;;;5074843;28;20036;-10
2022/06/17 09:02:36;;;;;;;15.63;11.63;;;34.40;45.20;;;;;;5074266;28;20103;-10
2022/06/17 09:05:33;;;;;;;16.90;12.02;;;34.70;44.20;;;;;;5073161;28;20113;-10
2022/06/17 09:08:19;;;;;;;14.68;12.00;;;35.00;41.70;;;;;;5074121;28;20048;-9
2022/06/17 09:10:57;;;;;;;13.52;9.20;;;35.10;42.30;;;;;;5073812;28;20039;-10
2022/06/17 09:13:48;;;;;;;17.13;11.18;;;35.30;43.10;;;;;;5073867;28;20381;-9
2022/06/17 09:16:31;;;;;;;12.05;7.93;;;35.60;42.40;;;;;;5074387;28;20103;-10
2022/06/17 09:19:02;;;;;;;11.48;8.13;;;35.70;42.50;;;;;;5073971;28;20400;-11
2022/06/17 09:21:34;;;;;;;12.60;9.63;;;36.10;41.60;;;;;;5072834;28;20032;-10
2022/06/17 09:24:08;;;;;;;12.20;8.27;;;36.40;40.30;;;;;;5073696;28;20021;-10
2022/06/17 09:26:45;;;;;;;10.80;9.70;;;36.60;40.30;;;;;;5073424;28;20055;-11
2022/06/17 09:29:47;;;;;;;9.10;7.57;;;36.50;39.30;;;;;;5074133;28;20138;-10
2022/06/17 09:32:35;;;;;;;14.93;8.30;;;36.40;38.80;;;;;;5070782;28;20487;-11
2022/06/17 09:35:04;;;;;;;10.70;7.63;;;36.60;39.20;;;;;;5073748;28;20028;-10
2022/06/17 09:37:36;;;;;;;11.50;7.97;;;36.90;39.00;;;;;;5073632;28;20024;-10
2022/06/17 09:40:30;;;;;;;8.45;7.40;;;37.00;38.10;;;;;;5073364;28;20555;-9
2022/06/17 09:43:25;;;;;;;10.00;7.63;;;37.10;38.20;;;;;;5073537;28;20029;-10
2022/06/17 09:46:09;;;;;;;11.23;7.85;;;37.30;38.30;;;;;;5069871;28;20035;-10
2022/06/17 09:48:50;;;;;;;9.30;7.72;;;37.60;37.70;;;;;;5073160;28;20036;-10
2022/06/17 09:51:20;;;;;;;10.13;7.70;;;37.90;37.70;;;;;;5073362;28;20139;-10
2022/06/17 09:54:03;;;;;;;9.77;7.70;;;38.10;37.70;;;;;;5074004;28;20032;-10
2022/06/17 09:56:39;;;;;;;8.75;7.45;;;38.40;36.70;;;;;;5073313;28;20035;-9
2022/06/17 09:59:29;;;;;;;10.82;7.88;;;38.40;36.80;;;;;;5073677;28;20029;-10
2022/06/17 10:01:58;;;;;;;9.45;7.45;;;38.20;36.80;;;;;;5073488;28;20020;-10
2022/06/17 10:04:25;;;;;;;8.55;7.07;;;38.10;37.40;;;;;;5073234;28;20024;-9
2022/06/17 10:07:21;;;;;;;9.73;7.38;;;38.40;37.10;;;;;;5072988;28;20028;-10
2022/06/17 10:09:57;;;;;;;10.15;7.60;;;38.60;35.90;;;;;;5073085;28;20493;-9
2022/06/17 10:12:46;;;;;;;8.65;6.57;;;38.70;35.50;;;;;;5073284;28;20021;-10
2022/06/17 10:19:10;;;;;;;10.90;7.45;;;39.00;35.10;;;;;;5051490;28;20052;-10
2022/06/17 10:22:09;;;;;;;8.40;6.63;;;39.00;35.00;;;;;;5050914;28;20436;-10
2022/06/17 10:25:03;;;;;;;10.45;6.72;;;38.90;35.30;;;;;;5050644;28;20025;-10
2022/06/17 10:27:45;;;;;;;8.70;6.97;;;38.90;35.40;;;;;;5050746;28;20040;-10
2022/06/17 10:30:18;;;;;;;10.60;7.10;;;39.10;34.90;;;;;;5050900;28;20033;-10
2022/06/17 10:32:49;;;;;;;11.40;7.53;;;39.30;34.70;;;;;;5037144;28;20024;-11
2022/06/17 10:35:33;;;;;;;9.00;6.70;;;39.40;34.20;;;;;;5054863;28;20052;-10
2022/06/17 10:38:03;;;;;;;7.30;6.18;;;39.50;34.00;;;;;;5054792;28;20389;-10
2022/06/17 10:40:33;;;;;;;13.30;8.00;;;39.70;34.30;;;;;;5054415;28;20037;-10
2022/06/17 10:43:04;;;;;;;9.20;8.18;;;39.80;33.80;;;;;;5054541;28;20159;-10
2022/06/17 10:45:31;;;;;;;8.90;6.43;;;39.90;33.50;;;;;;5054883;28;20119;-10
2022/06/17 10:48:21;;;;;;;10.05;6.68;;;39.60;33.80;;;;;;5055845;28;20537;-11
2022/06/17 10:50:47;;;;;;;9.82;6.70;;;39.50;34.30;;;;;;5076385;28;20109;-10
2022/06/17 10:53:34;;;;;;;11.48;7.57;;;39.70;34.20;;;;;;5076503;28;20029;-11
2022/06/17 10:56:05;;;;;;;11.85;7.70;;;40.00;32.90;;;;;;5076536;28;20032;-10
2022/06/17 10:58:33;;;;;;;9.23;7.10;;;39.90;33.60;;;;;;5076299;28;20037;-10
2022/06/17 11:01:03;;;;;;;10.38;7.57;;;39.90;33.70;;;;;;5076228;28;20794;-10
2022/06/17 11:03:41;;;;;;;8.82;7.10;;;40.10;33.20;;;;;;5075091;28;20052;-9
2022/06/17 11:06:13;;;;;;;8.43;6.85;;;40.20;32.70;;;;;;5076917;28;20025;-9
2022/06/17 11:08:54;;;;;;;7.15;6.43;;;40.40;32.40;;;;;;5076354;28;20105;-10
2022/06/17 11:14:30;;;;;;;10.48;8.07;;;40.80;32.40;;;;;;5076161;28;20027;-10
2022/06/17 11:16:57;;;;;;;;;;;40.80;32.40;;;;;;5076856;28;20132;-10
2022/06/17 11:19:25;;;;;;;9.00;6.95;;;40.50;32.70;;;;;;5076364;28;19904;-10
2022/06/17 11:21:55;;;;;;;9.07;6.55;;;40.30;33.50;;;;;;5076813;28;20153;-10
2022/06/17 11:24:31;;;;;;;11.68;7.70;;;40.30;33.80;;;;;;5075712;28;20024;-10
2022/06/17 11:27:17;;;;;;;10.80;6.35;;;40.40;33.00;;;;;;5076200;28;20029;-10
2022/06/17 11:29:48;;;;;;;9.57;6.40;;;40.60;33.40;;;;;;5076114;28;20035;-10
2022/06/17 11:32:20;;;;;;;9.88;6.30;;;41.00;32.70;;;;;;5076052;28;20054;-10
2022/06/17 11:34:53;;;;;;;8.75;6.22;;;41.50;31.10;;;;;;5075635;28;20056;-9
2022/06/17 11:37:23;;;;;;;11.40;7.25;;;41.70;30.60;;;;;;5076141;28;20025;-10
2022/06/17 11:40:15;;;;;;;10.90;6.85;;;42.00;30.40;;;;;;5076273;28;20487;-10
2022/06/17 11:42:50;;;;;;;9.93;6.53;;;42.00;29.70;;;;;;5075442;28;20500;-10
2022/06/17 11:45:23;;;;;;;9.20;6.65;;;41.80;31.40;;;;;;5075361;28;20024;-10
2022/06/17 11:47:52;;;;;;;8.68;6.03;;;41.50;31.70;;;;;;5075488;28;20071;-10
2022/06/17 11:50:30;;;;;;;7.53;5.75;;;41.20;32.10;;;;;;5075285;28;20051;-10
2022/06/17 11:53:17;;;;;;;7.47;6.32;;;41.20;31.50;;;;;;5075478;28;20033;-10
2022/06/17 11:55:49;;;;;;;8.15;6.75;;;41.50;31.00;;;;;;5075487;28;20032;-10
2022/06/17 11:58:18;;;;;;;8.98;6.40;;;41.90;30.60;;;;;;5075235;28;20078;-11
2022/06/17 12:00:55;;;;;;;9.20;6.30;;;42.00;30.50;;;;;;5075507;28;20103;-10
2022/06/17 12:03:40;;;;;;;10.75;6.50;;;42.30;30.60;;;;;;5075225;28;20473;-10
2022/06/17 12:06:23;;;;;;;7.75;6.18;;;42.60;29.50;;;;;;5075387;28;20028;-10
2022/06/17 12:09:10;;;;;;;10.18;6.85;;;42.60;29.50;;;;;;5075427;28;20127;-10
2022/06/17 12:11:48;;;;;;;9.70;6.10;;;42.70;29.30;;;;;;5075077;28;20021;-10
2022/06/17 12:14:27;;;;;;;7.10;6.40;;;42.80;29.00;;;;;;5074745;28;20423;-12
2022/06/17 12:16:55;;;;;;;6.40;5.80;;;42.90;29.30;;;;;;5075016;28;20089;-10
2022/06/17 12:19:22;;;;;;;7.57;5.85;;;43.00;28.60;;;;;;5075214;28;20031;-10
2022/06/17 12:21:58;;;;;;;10.63;6.00;;;43.00;28.70;;;;;;5074823;28;20423;-10
2022/06/17 12:24:55;;;;;;;7.68;5.80;;;43.20;27.70;;;;;;5075468;28;20029;-10
2022/06/17 12:27:33;;;;;;;8.63;6.60;;;43.50;27.90;;;;;;5074645;28;20441;-10
2022/06/17 12:30:23;;;;;;;8.38;6.38;;;43.70;27.80;;;;;;5074649;28;20025;-10
2022/06/17 12:32:56;;;;;;;9.55;5.85;;;43.70;27.90;;;;;;5074845;28;20476;-10
2022/06/17 12:35:31;;;;;;;10.98;6.55;;;43.70;28.50;;;;;;5074645;28;20043;-10
2022/06/17 12:38:19;;;;;;;8.88;6.68;;;43.90;28.70;;;;;;5074578;28;20029;-10
2022/06/17 12:41:00;;;;;;;9.95;5.70;;;44.10;28.20;;;;;;5075156;28;20029;-10
2022/06/17 12:43:32;;;;;;;7.97;6.03;;;43.90;28.30;;;;;;5074790;28;20032;-10
2022/06/17 12:46:04;;;;;;;9.13;6.22;;;43.90;28.50;;;;;;5074620;28;20032;-10
2022/06/17 12:55:46;;;;;;;7.88;5.85;;;43.50;28.00;;;;;;5074338;28;20036;-11
2022/06/17 12:58:19;;;;;;;8.75;5.72;;;42.90;28.50;;;;;;5070895;28;20025;-10
2022/06/17 13:00:50;;;;;;;9.82;5.45;;;42.30;29.60;;;;;;5074337;28;20510;-11
2022/06/17 13:03:38;;;;;;;9.02;6.20;;;41.80;30.10;;;;;;5074038;28;20493;-10
2022/06/17 13:06:38;;;;;;;8.27;5.55;;;41.80;29.90;;;;;;5074036;28;20031;-10
2022/06/17 13:09:16;;;;;;;8.27;6.00;;;41.90;29.10;;;;;;5074289;28;20036;-10
2022/06/17 13:11:48;;;;;;;8.88;5.32;;;41.50;29.80;;;;;;5074220;28;20066;-10
2022/06/17 13:14:27;;;;;;;7.22;5.25;;;40.90;30.80;;;;;;5073606;28;20118;-10
2022/06/17 13:17:12;;;;;;;9.57;5.93;;;40.40;31.40;;;;;;5074055;28;20047;-10
2022/06/17 13:19:53;;;;;;;6.65;5.55;;;40.00;31.30;;;;;;5072644;28;20029;-10
2022/06/17 13:22:44;;;;;;;8.10;5.47;;;39.80;31.80;;;;;;5073825;28;20024;-10
2022/06/17 13:25:36;;;;;;;7.68;6.00;;;39.70;31.60;;;;;;5073811;28;20068;-9
2022/06/17 13:28:05;;;;;;;9.70;5.75;;;39.60;32.10;;;;;;5073792;28;20024;-10